Time;durP1;ratioP1;P1;durP2;ratioP2;P2;SDS_P1;SDS_P2;PMS_P1;PMS_P2;Temp;Humidity;BMP_temperature;BMP_pressure;BME280_temperature;BME280_humidity;BME280_pressure;Samples;Min_cycle;Max_cycle;Signal;HPM_P1;HPM_P2
2023/05/01 00:02:09;;;;;;;3.28;1.60;;;;;;;14.31;32.44;101332.22;5043894;28;20104;-85
2023/05/01 00:04:38;;;;;;;3.50;1.77;;;;;;;14.29;32.79;101338.88;5049149;28;20045;-86
2023/05/01 00:07:06;;;;;;;3.83;1.92;;;;;;;14.27;32.90;101329.91;5025777;28;20552;-85
2023/05/01 00:09:34;;;;;;;3.42;1.88;;;;;;;14.25;32.65;101329.19;5050146;28;20049;-84
2023/05/01 00:12:02;;;;;;;3.15;1.80;;;;;;;14.22;33.15;101330.34;5053368;28;20076;-85
2023/05/01 00:14:30;;;;;;;3.47;1.67;;;;;;;14.21;32.97;101324.97;5067513;28;20416;-84
2023/05/01 00:17:00;;;;;;;3.35;1.90;;;;;;;14.20;33.29;101317.72;5052920;28;20120;-84
2023/05/01 00:19:28;;;;;;;3.08;1.83;;;;;;;14.16;33.30;101317.16;5052153;28;20413;-84
2023/05/01 00:21:56;;;;;;;3.60;2.15;;;;;;;14.12;33.30;101312.97;5061925;28;20095;-85
2023/05/01 00:24:24;;;;;;;2.97;1.65;;;;;;;14.09;33.15;101312.41;5053002;28;20426;-84
2023/05/01 00:26:52;;;;;;;2.95;1.70;;;;;;;14.06;33.59;101307.19;5028972;28;20071;-85
2023/05/01 00:29:22;;;;;;;3.83;1.88;;;;;;;14.02;33.55;101299.19;5071079;28;20522;-85
2023/05/01 00:31:50;;;;;;;3.17;1.90;;;;;;;14.00;33.33;101305.88;5053175;28;20056;-85
2023/05/01 00:34:19;;;;;;;4.32;1.83;;;;;;;13.98;33.26;101300.53;5065920;28;20033;-84
2023/05/01 00:36:47;;;;;;;3.03;1.83;;;;;;;13.96;33.70;101296.16;5055371;28;20051;-84
2023/05/01 00:39:16;;;;;;;3.05;1.80;;;;;;;13.94;33.46;101298.22;5049914;28;20477;-83
2023/05/01 00:41:44;;;;;;;4.65;2.00;;;;;;;13.91;33.74;101293.88;5063896;28;20136;-85
2023/05/01 00:44:13;;;;;;;3.40;1.95;;;;;;;13.91;33.94;101293.00;5056599;28;20488;-85
2023/05/01 00:46:42;;;;;;;3.30;1.70;;;;;;;13.90;34.00;101299.50;5052802;28;20139;-84
2023/05/01 00:49:10;;;;;;;3.58;1.85;;;;;;;13.89;33.67;101295.00;5052966;28;20052;-85
2023/05/01 00:51:41;;;;;;;5.20;2.30;;;;;;;13.88;34.25;101288.66;5053289;28;20531;-85
2023/05/01 00:54:09;;;;;;;4.18;2.20;;;;;;;13.85;33.90;101279.84;5071036;28;20063;-85
2023/05/01 00:56:37;;;;;;;4.03;1.90;;;;;;;13.83;33.89;101287.34;5052779;28;20083;-85
2023/05/01 00:59:05;;;;;;;5.35;2.20;;;;;;;13.81;33.77;101275.63;5050308;28;20040;-85
2023/05/01 01:01:34;;;;;;;3.38;1.98;;;;;;;13.79;34.24;101289.50;5049778;28;20080;-84
2023/05/01 01:04:02;;;;;;;3.63;1.80;;;;;;;13.77;33.80;101279.69;5048289;28;20040;-85
2023/05/01 01:06:38;;;;;;;3.28;1.90;;;;;;;13.78;34.54;101273.16;5053539;28;20056;-85
2023/05/01 01:09:17;;;;;;;4.63;2.00;;;;;;;13.76;34.14;101267.81;5048637;28;20450;-85
2023/05/01 01:11:57;;;;;;;4.78;2.38;;;;;;;13.75;34.69;101262.44;5064428;28;20045;-85
2023/05/01 01:14:32;;;;;;;4.20;2.22;;;;;;;13.71;33.96;101272.00;5064905;28;20939;-84
2023/05/01 01:17:09;;;;;;;4.13;2.40;;;;;;;13.70;34.55;101268.38;5066639;28;20071;-84
2023/05/01 01:20:13;;;;;;;4.15;2.10;;;;;;;13.66;34.44;101258.69;5069606;28;20068;-84
2023/05/01 01:22:47;;;;;;;3.80;2.03;;;;;;;13.63;34.48;101258.97;5019491;28;20116;-83
2023/05/01 01:25:45;;;;;;;4.25;2.40;;;;;;;13.60;34.45;101254.66;5065069;28;20048;-84
2023/05/01 01:28:25;;;;;;;3.33;2.03;;;;;;;13.60;34.36;101248.28;5054822;28;20340;-85
2023/05/01 01:31:10;;;;;;;5.65;2.50;;;;;;;13.59;34.77;101252.03;5051203;28;20127;-84
2023/05/01 01:33:55;;;;;;;3.25;2.20;;;;;;;13.57;34.45;101252.16;5046590;28;20399;-85
2023/05/01 01:36:40;;;;;;;3.80;2.38;;;;;;;13.57;34.45;101256.81;5064062;28;20510;-84
2023/05/01 01:39:22;;;;;;;3.40;2.30;;;;;;;13.54;34.39;101246.91;5049505;28;20044;-84
2023/05/01 01:41:52;;;;;;;4.70;2.70;;;;;;;13.50;34.35;101250.97;5051159;28;20102;-85
2023/05/01 01:44:28;;;;;;;5.35;2.83;;;;;;;13.52;34.79;101246.22;5049711;28;20056;-85
2023/05/01 01:46:58;;;;;;;4.57;2.67;;;;;;;13.49;34.60;101240.13;5049059;28;20055;-85
2023/05/01 01:49:30;;;;;;;4.25;2.40;;;;;;;13.50;34.84;101239.97;5050045;28;20122;-85
2023/05/01 01:52:02;;;;;;;3.72;2.42;;;;;;;13.45;34.94;101242.28;5051757;28;20052;-85
2023/05/01 01:54:33;;;;;;;5.85;2.75;;;;;;;13.47;34.93;101233.88;5051890;28;20047;-85
2023/05/01 01:57:03;;;;;;;5.40;3.05;;;;;;;13.46;34.62;101230.28;5047898;28;20053;-85
2023/05/01 01:59:41;;;;;;;4.05;2.95;;;;;;;13.42;34.72;101230.72;5050546;28;20071;-85
2023/05/01 02:02:11;;;;;;;5.90;3.25;;;;;;;13.38;35.10;101226.50;5060919;28;20076;-85
2023/05/01 02:04:45;;;;;;;5.10;3.42;;;;;;;13.39;35.16;101225.50;5064331;28;20076;-85
2023/05/01 02:07:17;;;;;;;6.15;3.72;;;;;;;13.35;35.06;101216.69;5046778;28;20045;-84
2023/05/01 02:09:48;;;;;;;5.43;3.42;;;;;;;13.30;35.25;101218.09;5064393;28;20133;-84
2023/05/01 02:12:18;;;;;;;5.15;3.55;;;;;;;13.29;35.08;101219.97;5049127;28;20052;-84
2023/05/01 02:14:49;;;;;;;5.93;3.58;;;;;;;13.28;35.16;101212.78;5046685;28;20041;-84
2023/05/01 02:17:19;;;;;;;3.92;2.70;;;;;;;13.26;34.94;101214.78;5065024;28;20076;-84
2023/05/01 02:19:51;;;;;;;5.07;3.22;;;;;;;13.24;35.56;101203.94;5062221;28;20526;-85
2023/05/01 02:22:22;;;;;;;5.68;3.45;;;;;;;13.20;35.42;101201.63;5054399;28;20044;-84
2023/05/01 02:24:50;;;;;;;5.20;3.15;;;;;;;13.19;35.30;101202.63;5046554;28;20427;-84
2023/05/01 02:27:23;;;;;;;4.05;2.72;;;;;;;13.19;35.13;101194.41;5067396;28;20048;-84
2023/05/01 02:29:52;;;;;;;6.05;3.30;;;;;;;13.15;35.02;101192.94;5045667;28;20049;-83
2023/05/01 02:32:20;;;;;;;5.30;3.65;;;;;;;13.13;35.42;101192.19;5064259;28;20388;-84
2023/05/01 02:34:52;;;;;;;4.68;3.28;;;;;;;13.11;35.04;101186.00;5050931;28;20107;-83
2023/05/01 02:37:21;;;;;;;5.47;3.43;;;;;;;13.04;35.20;101182.06;5063083;28;20488;-85
2023/05/01 02:39:50;;;;;;;6.10;3.10;;;;;;;13.00;35.27;101180.63;5049561;28;20600;-84
2023/05/01 02:42:22;;;;;;;4.63;2.90;;;;;;;12.97;35.47;101176.28;5046169;28;20643;-84
2023/05/01 02:44:54;;;;;;;5.27;2.93;;;;;;;12.91;35.39;101175.97;5047044;28;20059;-84
2023/05/01 02:47:26;;;;;;;4.80;2.65;;;;;;;12.86;35.52;101169.03;5040383;28;20072;-85
2023/05/01 02:49:57;;;;;;;4.57;2.80;;;;;;;12.81;35.42;101165.84;5058617;28;20431;-84
2023/05/01 02:52:27;;;;;;;4.00;2.70;;;;;;;12.76;35.52;101167.28;5062060;28;20109;-84
2023/05/01 02:55:09;;;;;;;6.05;2.90;;;;;;;12.71;35.66;101169.56;5049294;28;20048;-84
2023/05/01 02:57:37;;;;;;;3.33;2.42;;;;;;;12.69;35.98;101164.22;5042691;28;20048;-84
2023/05/01 03:00:12;;;;;;;4.63;2.40;;;;;;;12.68;35.75;101161.63;5042937;28;20055;-84
2023/05/01 03:02:41;;;;;;;3.50;2.33;;;;;;;12.63;35.90;101151.03;5043960;28;20142;-84
2023/05/01 03:05:11;;;;;;;4.18;2.28;;;;;;;12.62;35.81;101153.97;5043648;28;20044;-84
2023/05/01 03:07:38;;;;;;;3.88;2.20;;;;;;;12.58;36.15;101144.22;5045249;28;20135;-84
2023/05/01 03:10:08;;;;;;;4.40;2.60;;;;;;;12.57;36.03;101143.34;5048773;28;20105;-86
2023/05/01 03:12:36;;;;;;;3.53;2.20;;;;;;;12.55;36.16;101144.47;5061326;28;20132;-85
2023/05/01 03:15:05;;;;;;;3.58;2.33;;;;;;;12.53;36.29;101138.28;5055674;28;21254;-85
2023/05/01 03:17:33;;;;;;;3.80;1.98;;;;;;;12.54;36.36;101134.53;5049088;28;20071;-86
2023/05/01 03:20:01;;;;;;;3.67;2.47;;;;;;;12.52;35.94;101131.94;5047303;28;20068;-85
2023/05/01 03:22:31;;;;;;;3.35;2.30;;;;;;;12.53;36.25;101132.78;5056308;28;20059;-85
2023/05/01 03:25:00;;;;;;;3.95;2.30;;;;;;;12.49;36.15;101127.56;5047092;28;20037;-85
2023/05/01 03:27:29;;;;;;;4.70;2.30;;;;;;;12.49;36.44;101132.19;5050322;28;20303;-85
2023/05/01 03:29:57;;;;;;;3.33;2.30;;;;;;;12.48;36.26;101124.97;5049488;28;20072;-86
2023/05/01 03:32:27;;;;;;;3.88;2.10;;;;;;;12.47;36.29;101120.47;5047924;28;20182;-85
2023/05/01 03:34:56;;;;;;;3.05;2.20;;;;;;;12.47;36.28;101117.72;5059507;28;20048;-85
2023/05/01 03:37:25;;;;;;;3.38;2.05;;;;;;;12.47;36.06;101117.72;5051262;28;20059;-85
2023/05/01 03:39:54;;;;;;;3.15;2.20;;;;;;;12.48;36.53;101117.59;5051679;28;20049;-86
2023/05/01 03:42:57;;;;;;;4.03;2.35;;;;;;;12.43;36.46;101108.94;5057416;28;21097;-86
2023/05/01 03:45:26;;;;;;;3.80;2.20;;;;;;;12.44;36.11;101110.66;5046216;28;20067;-86
2023/05/01 03:47:54;;;;;;;4.00;2.40;;;;;;;12.43;36.41;101111.69;5047845;28;20048;-86
2023/05/01 03:50:22;;;;;;;3.85;2.50;;;;;;;12.42;36.36;101107.19;5060181;28;20046;-84
2023/05/01 03:52:51;;;;;;;5.47;2.53;;;;;;;12.40;36.43;101108.31;5049067;28;20106;-85
2023/05/01 03:55:21;;;;;;;4.57;2.50;;;;;;;12.40;36.56;101105.59;5049807;28;20049;-85
2023/05/01 03:57:51;;;;;;;4.32;2.42;;;;;;;12.36;36.52;101101.41;5053524;28;20563;-84
2023/05/01 04:00:20;;;;;;;4.75;2.58;;;;;;;12.33;36.25;101105.28;5060711;28;20041;-84
2023/05/01 04:02:48;;;;;;;3.75;2.00;;;;;;;12.31;36.19;101104.53;5063201;28;20050;-84
2023/05/01 04:05:21;;;;;;;4.60;2.60;;;;;;;12.26;36.44;101104.09;5069091;28;20095;-84
2023/05/01 04:07:53;;;;;;;4.07;2.20;;;;;;;12.25;36.18;101101.50;5065141;28;20033;-83
2023/05/01 04:10:23;;;;;;;3.92;2.45;;;;;;;12.24;36.52;101099.75;5051354;28;20040;-84
2023/05/01 04:12:56;;;;;;;4.32;2.10;;;;;;;12.21;36.54;101108.28;5055259;28;20047;-84
2023/05/01 04:15:24;;;;;;;3.72;2.30;;;;;;;12.17;36.81;101099.44;5052531;28;20055;-83
2023/05/01 04:17:54;;;;;;;4.43;2.40;;;;;;;12.16;36.20;101100.47;5046321;28;20036;-84
2023/05/01 04:20:23;;;;;;;3.58;2.30;;;;;;;12.15;36.87;101098.72;5051841;28;20127;-83
2023/05/01 04:22:51;;;;;;;3.75;2.40;;;;;;;12.15;36.74;101097.84;5053435;28;20055;-83
2023/05/01 04:25:19;;;;;;;4.93;2.30;;;;;;;12.13;36.22;101096.09;5063036;28;20048;-83
2023/05/01 04:27:51;;;;;;;3.55;2.15;;;;;;;12.15;36.59;101098.72;5050840;28;20408;-83
2023/05/01 04:30:22;;;;;;;4.45;2.20;;;;;;;12.15;36.55;101095.09;5050273;28;20139;-84
2023/05/01 04:32:50;;;;;;;3.90;2.10;;;;;;;12.13;36.50;101091.66;5050711;28;20122;-83
2023/05/01 04:35:18;;;;;;;3.30;2.28;;;;;;;12.13;36.72;101086.16;5053884;28;20037;-83
2023/05/01 04:37:46;;;;;;;3.40;2.17;;;;;;;12.12;36.92;101090.78;5061053;28;20421;-84
2023/05/01 04:40:14;;;;;;;3.30;2.03;;;;;;;12.11;36.48;101095.41;5068981;28;20044;-84
2023/05/01 04:42:43;;;;;;;4.50;2.00;;;;;;;12.13;36.54;101083.41;5053250;28;20086;-84
2023/05/01 04:45:15;;;;;;;3.83;2.15;;;;;;;12.14;36.63;101086.00;5049236;28;20053;-85
2023/05/01 04:47:43;;;;;;;3.78;2.20;;;;;;;12.10;36.97;101088.16;5050293;28;20104;-85
2023/05/01 04:50:11;;;;;;;5.07;2.50;;;;;;;12.10;36.51;101085.44;5065376;28;20070;-84
2023/05/01 04:52:40;;;;;;;4.82;2.42;;;;;;;12.11;36.92;101087.16;5049901;28;20037;-84
2023/05/01 04:55:10;;;;;;;4.15;2.10;;;;;;;12.13;36.75;101088.91;5046739;28;20068;-85
2023/05/01 04:57:46;;;;;;;4.00;2.40;;;;;;;12.11;36.63;101083.56;5050464;28;20056;-85
2023/05/01 05:00:17;;;;;;;3.55;2.10;;;;;;;12.14;36.79;101091.47;5051628;28;20143;-85
2023/05/01 05:02:53;;;;;;;3.60;2.10;;;;;;;12.12;36.88;101085.28;5069872;28;20048;-85
2023/05/01 05:05:21;;;;;;;4.85;2.10;;;;;;;12.13;37.07;101083.41;5051199;28;20041;-85
2023/05/01 05:07:49;;;;;;;4.07;2.53;;;;;;;12.11;36.66;101080.81;5054613;28;20103;-84
2023/05/01 05:10:32;;;;;;;3.70;2.10;;;;;;;12.11;36.65;101092.66;5048496;28;20519;-83
2023/05/01 05:13:18;;;;;;;4.25;2.20;;;;;;;12.11;36.95;101087.16;5064411;28;20066;-83
2023/05/01 05:15:52;;;;;;;3.85;2.17;;;;;;;12.14;36.79;101094.22;5047381;28;20094;-83
2023/05/01 05:18:22;;;;;;;3.22;2.30;;;;;;;12.16;37.01;101091.34;5060798;28;20040;-83
2023/05/01 05:20:51;;;;;;;3.97;2.25;;;;;;;12.18;37.12;101087.47;5053909;28;20069;-82
2023/05/01 05:23:20;;;;;;;3.38;2.28;;;;;;;12.21;37.23;101091.81;5073827;28;20043;-83
2023/05/01 05:25:48;;;;;;;3.88;2.20;;;;;;;12.23;37.18;101090.66;5071714;28;20410;-84
2023/05/01 05:28:16;;;;;;;3.28;2.30;;;;;;;12.26;37.13;101090.38;5069085;28;20511;-83
2023/05/01 05:30:45;;;;;;;4.72;2.10;;;;;;;12.28;36.81;101096.63;5050075;28;20066;-83
2023/05/01 05:33:18;;;;;;;3.43;2.00;;;;;;;12.30;36.97;101090.97;5068917;28;20306;-83
2023/05/01 05:35:46;;;;;;;3.83;2.28;;;;;;;12.32;37.14;101092.56;5061106;28;20086;-84
2023/05/01 05:38:14;;;;;;;3.60;2.13;;;;;;;12.34;37.10;101087.81;5054035;28;20519;-84
2023/05/01 05:40:45;;;;;;;4.18;2.20;;;;;;;12.36;36.77;101084.94;5062364;28;20040;-83
2023/05/01 05:43:13;;;;;;;3.95;2.33;;;;;;;12.40;36.67;101091.84;5052123;28;20047;-84
2023/05/01 05:45:41;;;;;;;3.90;2.38;;;;;;;12.42;36.71;101090.72;5047740;28;20039;-83
2023/05/01 05:48:09;;;;;;;3.33;2.15;;;;;;;12.46;36.65;101088.53;5064459;28;20069;-83
2023/05/01 05:50:41;;;;;;;3.35;2.15;;;;;;;12.50;36.60;101088.13;5053200;28;20624;-82
2023/05/01 05:53:12;;;;;;;4.93;2.60;;;;;;;12.52;36.97;101096.25;5051179;28;20068;-83
2023/05/01 05:55:42;;;;;;;3.35;2.40;;;;;;;12.57;37.03;101093.06;5059131;28;20059;-83
2023/05/01 05:58:10;;;;;;;3.25;2.13;;;;;;;12.61;36.55;101095.38;5061307;28;20048;-83
2023/05/01 06:00:38;;;;;;;3.58;2.40;;;;;;;12.66;36.90;101090.34;5048199;28;20048;-83
2023/05/01 06:03:06;;;;;;;4.30;2.55;;;;;;;12.72;36.42;101088.91;5077175;22;20519;-70
2023/05/01 06:05:35;;;;;;;4.50;2.20;;;;;;;12.76;36.48;101084.88;5076891;28;20123;-71
2023/05/01 06:08:05;;;;;;;3.10;2.08;;;;;;;12.81;36.50;101086.19;5064696;28;20499;-71
2023/05/01 06:10:33;;;;;;;3.33;2.20;;;;;;;12.85;36.35;101087.66;5058608;28;20534;-71
2023/05/01 06:13:00;;;;;;;3.13;1.90;;;;;;;12.90;36.77;101092.69;5057745;28;20148;-72
2023/05/01 06:15:44;;;;;;;3.85;2.42;;;;;;;12.94;36.71;101085.91;5078122;28;20044;-72
2023/05/01 06:18:12;;;;;;;3.40;2.00;;;;;;;12.98;36.74;101089.22;5056111;28;20566;-71
2023/05/01 06:20:41;;;;;;;3.30;2.08;;;;;;;13.02;36.35;101086.06;5072368;28;20103;-72
2023/05/01 06:23:12;;;;;;;4.20;2.28;;;;;;;13.06;36.23;101086.63;5068398;28;20041;-72
2023/05/01 06:25:55;;;;;;;4.18;2.20;;;;;;;13.07;36.58;101086.47;5059692;28;20080;-71
2023/05/01 06:28:23;;;;;;;3.67;1.90;;;;;;;13.11;36.67;101079.69;5059885;28;20036;-72
2023/05/01 06:30:51;;;;;;;3.50;1.95;;;;;;;13.14;36.44;101079.38;5074180;28;20067;-71
2023/05/01 06:33:20;;;;;;;3.72;1.95;;;;;;;13.17;35.97;101079.09;5061359;28;20051;-72
2023/05/01 06:35:59;;;;;;;3.05;1.67;;;;;;;13.19;35.88;101079.84;5077084;28;20123;-71
2023/05/01 06:38:28;;;;;;;2.50;1.67;;;;;;;13.27;36.30;101076.34;5054929;28;20571;-70
2023/05/01 06:40:56;;;;;;;3.22;1.92;;;;;;;13.28;35.86;101082.72;5057470;28;20047;-71
2023/05/01 06:43:26;;;;;;;3.92;1.98;;;;;;;13.30;35.73;101076.03;5070840;28;20048;-71
2023/05/01 06:45:55;;;;;;;3.72;1.80;;;;;;;13.33;36.08;101074.88;5078693;28;20060;-71
2023/05/01 06:48:23;;;;;;;3.03;1.80;;;;;;;13.36;35.68;101078.22;5054944;28;20033;-71
2023/05/01 06:50:51;;;;;;;3.58;2.17;;;;;;;13.39;35.81;101083.41;5070957;28;20090;-72
2023/05/01 06:53:19;;;;;;;3.95;2.08;;;;;;;13.43;35.66;101082.13;5071626;28;20464;-71
2023/05/01 06:55:48;;;;;;;3.70;1.85;;;;;;;13.48;35.70;101079.78;5067502;28;20647;-72
2023/05/01 06:58:16;;;;;;;4.05;1.80;;;;;;;13.52;35.69;101077.59;5059851;28;20064;-72
2023/05/01 07:00:52;;;;;;;2.90;1.98;;;;;;;13.53;35.38;101084.84;5054191;28;20051;-71
2023/05/01 07:03:20;;;;;;;2.58;1.75;;;;;;;13.56;35.53;101079.94;5061867;28;20055;-71
2023/05/01 07:05:48;;;;;;;2.85;1.90;;;;;;;13.61;35.39;101085.00;5061062;28;20028;-71
2023/05/01 07:08:16;;;;;;;3.15;1.90;;;;;;;13.63;35.38;101072.81;5059696;28;20438;-71
2023/05/01 07:10:44;;;;;;;3.45;1.83;;;;;;;13.68;35.15;101086.13;5057599;28;20503;-71
2023/05/01 07:13:13;;;;;;;3.22;1.80;;;;;;;13.74;35.69;101076.41;5073605;28;20163;-70
2023/05/01 07:15:41;;;;;;;2.78;1.63;;;;;;;13.75;35.07;101068.03;5057943;28;20518;-71
2023/05/01 07:18:11;;;;;;;3.22;1.90;;;;;;;13.80;35.12;101073.94;5056975;28;20463;-70
2023/05/01 07:20:39;;;;;;;3.08;1.92;;;;;;;13.82;35.09;101076.53;5055264;28;20049;-70
2023/05/01 07:23:08;;;;;;;3.03;1.63;;;;;;;13.86;35.27;101066.97;5061598;28;20127;-73
2023/05/01 07:25:37;;;;;;;3.58;2.13;;;;;;;13.90;34.90;101066.50;5062492;28;20041;-71
2023/05/01 07:28:06;;;;;;;3.40;1.90;;;;;;;13.94;35.22;101069.84;5084890;28;20381;-71
2023/05/01 07:30:36;;;;;;;4.10;1.98;;;;;;;14.00;34.85;101069.22;5058701;28;20522;-69
2023/05/01 07:33:05;;;;;;;3.17;1.80;;;;;;;14.03;34.83;101071.66;5077316;28;20358;-72
2023/05/01 07:35:33;;;;;;;3.40;1.77;;;;;;;14.08;35.21;101062.97;5052269;28;20500;-70
2023/05/01 07:38:01;;;;;;;2.83;1.70;;;;;;;14.14;34.79;101060.44;5056238;28;20040;-70
2023/05/01 07:40:32;;;;;;;3.63;2.28;;;;;;;14.20;34.63;101064.47;5053371;28;20083;-70
2023/05/01 07:43:01;;;;;;;3.72;2.00;;;;;;;14.23;34.85;101059.53;5065888;28;20485;-70
2023/05/01 07:45:28;;;;;;;2.72;1.80;;;;;;;14.29;35.14;101052.53;5059414;28;20123;-70
2023/05/01 07:47:58;;;;;;;2.85;1.80;;;;;;;14.38;35.08;101057.13;5065266;28;20058;-71
2023/05/01 07:50:26;;;;;;;3.38;2.10;;;;;;;14.41;34.45;101056.84;5061221;28;20562;-71
2023/05/01 07:52:54;;;;;;;2.67;1.80;;;;;;;14.48;34.90;101046.09;5058581;28;20049;-71
2023/05/01 07:55:23;;;;;;;3.22;2.00;;;;;;;14.55;34.75;101047.19;5066245;28;20082;-71
2023/05/01 07:57:50;;;;;;;3.92;2.17;;;;;;;14.61;34.45;101047.44;5066181;28;20434;-71
2023/05/01 08:00:19;;;;;;;4.75;2.13;;;;;;;14.67;34.09;101049.59;5063454;28;20111;-71
2023/05/01 08:02:47;;;;;;;4.13;2.08;;;;;;;14.72;34.46;101046.34;5066946;28;20662;-70
2023/05/01 08:05:16;;;;;;;3.28;2.20;;;;;;;14.81;34.52;101044.53;5055003;28;20047;-72
2023/05/01 08:07:45;;;;;;;3.22;1.95;;;;;;;14.87;34.08;101044.78;5062429;28;20048;-71
2023/05/01 08:10:13;;;;;;;2.75;1.88;;;;;;;14.94;34.40;101042.25;5056282;28;20044;-71
2023/05/01 08:12:41;;;;;;;3.00;1.73;;;;;;;15.02;34.52;101043.19;5055744;28;20105;-72
2023/05/01 08:15:10;;;;;;;3.20;2.08;;;;;;;15.12;34.36;101051.38;5058074;28;20052;-70
2023/05/01 08:17:38;;;;;;;2.35;1.70;;;;;;;15.21;34.39;101049.53;5058873;28;20061;-71
2023/05/01 08:20:07;;;;;;;3.72;1.83;;;;;;;15.30;33.72;101049.44;5058392;28;20036;-70
2023/05/01 08:22:37;;;;;;;3.72;1.88;;;;;;;15.43;33.66;101054.56;5057498;28;20560;-72
2023/05/01 08:25:05;;;;;;;4.60;2.08;;;;;;;15.54;34.38;101050.69;5063372;28;20032;-73
2023/05/01 08:27:33;;;;;;;3.40;2.05;;;;;;;15.66;34.36;101049.41;5063455;28;20601;-71
2023/05/01 08:30:01;;;;;;;3.50;2.05;;;;;;;15.82;34.42;101057.78;5056397;28;20067;-72
2023/05/01 08:32:29;;;;;;;3.10;2.08;;;;;;;15.97;34.64;101056.13;5080260;28;20470;-71
2023/05/01 08:34:57;;;;;;;3.95;2.05;;;;;;;16.14;33.66;101059.81;5060434;28;20129;-70
2023/05/01 08:37:25;;;;;;;3.13;2.00;;;;;;;16.30;33.73;101059.94;5053216;28;20062;-71
2023/05/01 08:39:55;;;;;;;4.07;2.00;;;;;;;16.48;33.58;101052.41;5052213;28;20033;-71
2023/05/01 08:42:23;;;;;;;3.20;2.03;;;;;;;16.63;33.31;101050.72;5056287;28;20056;-71
2023/05/01 08:44:54;;;;;;;3.40;2.00;;;;;;;16.83;32.45;101055.91;5055324;28;20376;-71
2023/05/01 08:47:22;;;;;;;3.80;2.20;;;;;;;16.95;33.07;101052.66;5056775;28;20049;-71
2023/05/01 08:49:52;;;;;;;3.35;2.13;;;;;;;17.11;32.88;101051.81;5058366;28;20097;-71
2023/05/01 08:52:22;;;;;;;4.15;2.30;;;;;;;17.25;32.10;101053.03;5055301;28;20143;-71
2023/05/01 08:54:54;;;;;;;3.17;2.28;;;;;;;17.38;32.30;101061.69;5052878;28;20041;-71
2023/05/01 08:57:24;;;;;;;3.00;2.10;;;;;;;17.49;31.74;101057.69;5058627;28;20062;-71
2023/05/01 08:59:56;;;;;;;2.60;1.88;;;;;;;17.61;31.73;101062.69;5061742;28;20039;-71
2023/05/01 09:02:27;;;;;;;3.22;1.80;;;;;;;17.68;32.26;101065.63;5064239;28;20049;-71
2023/05/01 09:04:55;;;;;;;4.07;2.00;;;;;;;17.81;32.28;101048.50;5063679;28;20370;-65
2023/05/01 09:07:23;;;;;;;4.72;2.05;;;;;;;17.90;32.11;101056.59;5061603;28;20415;-64
2023/05/01 09:09:51;;;;;;;5.35;2.33;;;;;;;18.01;32.13;101052.59;5061721;28;20051;-60
2023/05/01 09:12:25;;;;;;;3.45;2.13;;;;;;;18.13;31.59;101049.25;5055396;28;20056;-68
2023/05/01 09:14:55;;;;;;;3.97;2.17;;;;;;;18.23;31.65;101056.47;5058177;28;20565;-64
2023/05/01 09:17:25;;;;;;;3.40;2.05;;;;;;;18.31;32.03;101051.75;5060110;28;20049;-70
2023/05/01 09:19:53;;;;;;;3.22;1.80;;;;;;;18.41;31.40;101054.31;5081801;28;20090;-67
2023/05/01 09:22:21;;;;;;;3.20;2.08;;;;;;;18.49;31.46;101055.16;5074520;28;20040;-69
2023/05/01 09:24:49;;;;;;;4.55;2.42;;;;;;;18.58;31.16;101058.75;5057301;28;20041;-65
2023/05/01 09:27:18;;;;;;;3.38;2.33;;;;;;;18.65;31.06;101054.22;5072687;28;20049;-64
2023/05/01 09:29:48;;;;;;;4.10;2.25;;;;;;;18.75;30.68;101049.28;5063551;28;20119;-67
2023/05/01 09:32:19;;;;;;;4.50;2.60;;;;;;;18.80;30.48;101044.06;5063689;28;20588;-67
2023/05/01 09:34:49;;;;;;;4.10;2.30;;;;;;;18.86;30.84;101045.25;5059336;28;20049;-65
2023/05/01 09:37:27;;;;;;;4.30;2.35;;;;;;;18.95;29.82;101046.06;5062990;28;20119;-64
2023/05/01 09:40:03;;;;;;;4.72;2.25;;;;;;;19.00;29.97;101038.88;5066185;28;20052;-65
2023/05/01 09:42:32;;;;;;;4.32;2.20;;;;;;;19.06;30.77;101045.59;5067599;28;20076;-63
2023/05/01 09:45:04;;;;;;;3.80;2.50;;;;;;;19.14;30.18;101038.06;5065803;28;20410;-61
2023/05/01 09:47:32;;;;;;;3.28;2.33;;;;;;;19.17;30.24;101040.50;5058442;28;20045;-61
2023/05/01 09:50:01;;;;;;;3.60;2.30;;;;;;;19.27;30.04;101037.50;5058870;28;20037;-61
2023/05/01 09:52:30;;;;;;;4.22;2.65;;;;;;;19.33;30.04;101039.50;5062477;28;20052;-61
2023/05/01 09:55:14;;;;;;;3.08;2.13;;;;;;;19.42;29.45;101041.16;5068948;28;20047;-61
2023/05/01 09:57:44;;;;;;;3.10;2.03;;;;;;;19.44;29.89;101041.84;5063683;28;20659;-60
2023/05/01 10:00:15;;;;;;;4.43;2.10;;;;;;;19.53;29.63;101037.94;5068240;28;20033;-61
2023/05/01 10:02:44;;;;;;;3.77;2.03;;;;;;;19.56;29.76;101036.69;5059782;28;20048;-61
2023/05/01 10:05:13;;;;;;;3.75;2.17;;;;;;;19.61;29.45;101028.66;5069717;28;20494;-61
2023/05/01 10:07:57;;;;;;;3.17;2.10;;;;;;;19.70;28.94;101038.63;5063603;28;20079;-61
2023/05/01 10:10:26;;;;;;;3.70;2.20;;;;;;;19.73;29.42;101040.16;5062705;28;20037;-62
2023/05/01 10:12:54;;;;;;;3.53;2.20;;;;;;;19.77;29.61;101036.81;5072139;28;20126;-60
2023/05/01 10:15:35;;;;;;;3.13;1.98;;;;;;;19.86;29.66;101032.03;5062018;28;20041;-63
2023/05/01 10:18:04;;;;;;;3.35;2.00;;;;;;;19.91;29.74;101032.34;5058505;28;20085;-61
2023/05/01 10:20:32;;;;;;;3.30;2.15;;;;;;;19.99;29.77;101026.69;5065481;28;20470;-62
2023/05/01 10:23:02;;;;;;;3.47;2.30;;;;;;;20.08;29.21;101027.47;5057999;28;20041;-61
2023/05/01 10:25:32;;;;;;;3.78;2.00;;;;;;;20.15;29.13;101025.63;5062362;28;20229;-62
2023/05/01 10:28:03;;;;;;;2.85;1.83;;;;;;;20.23;28.94;101028.31;5062061;28;20424;-62
2023/05/01 10:30:35;;;;;;;3.88;1.80;;;;;;;20.30;28.86;101029.25;5061268;28;20041;-61
2023/05/01 10:33:05;;;;;;;3.08;1.73;;;;;;;20.35;28.91;101030.41;5062010;28;20063;-61
2023/05/01 10:35:37;;;;;;;3.20;1.85;;;;;;;20.46;29.20;101017.03;5067741;28;20115;-61
2023/05/01 10:38:08;;;;;;;3.10;1.90;;;;;;;20.50;28.67;101023.94;5063963;28;20068;-61
2023/05/01 10:40:49;;;;;;;3.03;1.83;;;;;;;20.60;28.40;101017.06;5056813;28;20044;-61
2023/05/01 10:43:24;;;;;;;2.97;1.90;;;;;;;20.69;27.80;101009.44;5062922;28;20044;-60
2023/05/01 10:46:15;;;;;;;3.03;1.83;;;;;;;20.75;28.21;101009.50;5064632;28;20036;-62
2023/05/01 10:48:56;;;;;;;3.28;1.85;;;;;;;20.83;28.10;101005.75;5058443;28;20483;-62
2023/05/01 10:51:26;;;;;;;4.07;1.77;;;;;;;20.88;28.47;101003.22;5065252;28;20135;-63
2023/05/01 10:54:22;;;;;;;3.75;2.28;;;;;;;20.93;27.95;101000.72;5065323;28;20095;-60
2023/05/01 10:56:50;;;;;;;3.55;2.30;;;;;;;21.00;28.43;101001.63;5055179;28;20397;-61
2023/05/01 10:59:18;;;;;;;3.55;2.30;;;;;;;21.08;28.28;101000.63;5060645;28;20036;-61
2023/05/01 11:01:50;;;;;;;2.97;1.88;;;;;;;21.18;28.06;101003.09;5060794;28;20051;-61
2023/05/01 11:04:49;;;;;;;4.07;1.77;;;;;;;21.20;27.63;100993.44;5062782;28;20059;-61
2023/05/01 11:07:18;;;;;;;2.88;1.77;;;;;;;21.29;27.93;100994.19;5061226;28;20118;-61
2023/05/01 11:09:53;;;;;;;2.55;1.60;;;;;;;21.35;27.60;100990.63;5061756;28;20098;-61
2023/05/01 11:12:48;;;;;;;2.83;1.42;;;;;;;21.39;27.41;100994.72;5059021;28;20060;-61
2023/05/01 11:15:26;;;;;;;4.10;1.60;;;;;;;21.47;27.32;100998.22;5040569;28;20057;-61
2023/05/01 11:17:56;;;;;;;3.53;1.60;;;;;;;21.51;27.57;100991.19;5063471;28;20065;-64
2023/05/01 11:20:47;;;;;;;2.72;1.63;;;;;;;21.55;26.91;100982.41;5062300;28;20040;-64
2023/05/01 11:23:22;;;;;;;2.67;1.48;;;;;;;21.59;26.66;100981.81;5068916;28;20054;-64
2023/05/01 11:25:50;;;;;;;3.53;1.85;;;;;;;21.62;27.11;100988.88;5061258;28;20058;-64
2023/05/01 11:28:21;;;;;;;3.10;1.70;;;;;;;21.68;26.28;100990.88;5068454;28;20203;-65
2023/05/01 11:30:50;;;;;;;2.85;1.50;;;;;;;21.67;27.09;100992.78;5059591;28;20315;-64
2023/05/01 11:33:26;;;;;;;2.75;1.67;;;;;;;21.76;25.95;100982.34;5059605;28;20111;-64
2023/05/01 11:36:00;;;;;;;2.42;1.58;;;;;;;21.79;25.81;100982.78;5059294;28;20118;-65
2023/05/01 11:38:29;;;;;;;3.50;1.50;;;;;;;21.80;26.49;100983.66;5058572;28;20199;-64
2023/05/01 11:41:04;;;;;;;3.38;1.60;;;;;;;21.85;25.68;100981.94;5065967;28;20055;-64
2023/05/01 11:43:32;;;;;;;2.90;1.50;;;;;;;21.85;26.53;100976.38;5068039;28;20130;-65